Time;durP1;ratioP1;P1;durP2;ratioP2;P2;SDS_P1;SDS_P2;PMS_P1;PMS_P2;Temp;Humidity;BMP_temperature;BMP_pressure;BME280_temperature;BME280_humidity;BME280_pressure;Samples;Min_cycle;Max_cycle;Signal;HPM_P1;HPM_P2
2022/10/19 00:02:04;;;;;;;10.45;1.67;;;10.30;99.90;;;;;;5046014;28;20048;-72
2022/10/19 00:04:30;;;;;;;8.82;1.88;;;10.30;99.90;;;;;;5030019;28;20503;-72
2022/10/19 00:06:55;;;;;;;10.75;1.48;;;10.30;99.90;;;;;;5014478;28;20052;-73
2022/10/19 00:09:21;;;;;;;7.65;1.35;;;10.30;99.90;;;;;;5046540;28;20404;-72
2022/10/19 00:11:49;;;;;;;7.18;1.40;;;10.40;99.90;;;;;;5046421;28;20091;-72
2022/10/19 00:14:19;;;;;;;6.40;1.38;;;10.40;99.90;;;;;;5046669;28;20049;-72
2022/10/19 00:16:46;;;;;;;4.85;1.00;;;10.50;99.90;;;;;;5031371;28;20462;-72
2022/10/19 00:19:19;;;;;;;11.13;1.63;;;10.40;99.90;;;;;;5044909;28;20759;-72
2022/10/19 00:21:45;;;;;;;7.18;1.38;;;10.50;99.90;;;;;;5046387;28;20072;-72
2022/10/19 00:24:10;;;;;;;8.05;0.93;;;10.40;99.90;;;;;;5045420;28;20072;-71
2022/10/19 00:26:37;;;;;;;5.50;1.10;;;10.40;99.90;;;;;;5033505;28;20144;-72
2022/10/19 00:29:04;;;;;;;15.00;1.33;;;10.40;99.90;;;;;;5045126;28;20147;-71
2022/10/19 00:31:30;;;;;;;6.82;1.27;;;10.60;99.90;;;;;;5047758;28;20145;-72
2022/10/19 00:33:57;;;;;;;9.15;1.40;;;10.40;99.90;;;;;;5046667;28;20128;-72
2022/10/19 00:36:30;;;;;;;6.05;1.20;;;10.50;99.90;;;;;;5033911;28;20052;-72
2022/10/19 00:38:56;;;;;;;7.35;1.23;;;10.50;99.90;;;;;;5041849;28;20041;-72
2022/10/19 00:41:24;;;;;;;6.88;1.20;;;10.50;99.90;;;;;;5046023;28;20123;-72
2022/10/19 00:44:02;;;;;;;8.60;1.40;;;10.60;99.90;;;;;;5046261;28;20040;-72
2022/10/19 00:46:30;;;;;;;10.23;1.40;;;10.60;99.90;;;;;;5033921;28;21020;-72
2022/10/19 00:49:01;;;;;;;10.07;1.48;;;10.60;99.90;;;;;;5043267;28;20142;-72
2022/10/19 00:51:28;;;;;;;9.57;1.00;;;10.70;99.90;;;;;;5045604;28;20049;-72
2022/10/19 00:53:54;;;;;;;7.65;1.02;;;10.70;99.90;;;;;;5044685;28;20569;-72
2022/10/19 00:56:20;;;;;;;7.38;1.08;;;10.70;99.90;;;;;;5036690;28;20053;-72
2022/10/19 00:58:46;;;;;;;9.43;1.48;;;10.70;99.90;;;;;;5041198;28;20053;-72
2022/10/19 01:01:16;;;;;;;9.60;1.38;;;10.70;99.90;;;;;;5045293;28;20059;-71
2022/10/19 01:03:42;;;;;;;7.38;1.05;;;10.60;99.90;;;;;;5044640;28;20033;-72
2022/10/19 01:06:09;;;;;;;9.23;1.20;;;10.70;99.90;;;;;;5040597;28;20055;-72
2022/10/19 01:08:34;;;;;;;8.43;1.10;;;10.60;99.90;;;;;;5034198;28;20049;-72
2022/10/19 01:11:32;;;;;;;8.85;1.13;;;10.70;99.90;;;;;;5045573;28;20072;-72
2022/10/19 01:14:16;;;;;;;7.93;1.15;;;10.70;99.90;;;;;;4997330;28;20119;-72
2022/10/19 01:17:00;;;;;;;8.70;1.20;;;10.70;99.90;;;;;;5031853;28;20745;-72
2022/10/19 01:19:41;;;;;;;5.47;0.77;;;10.70;99.90;;;;;;5044013;28;20041;-72
2022/10/19 01:22:48;;;;;;;6.22;1.20;;;10.70;99.90;;;;;;5044578;28;20045;-72
2022/10/19 01:25:21;;;;;;;7.70;1.08;;;10.70;99.90;;;;;;5030693;28;20646;-71
2022/10/19 01:27:59;;;;;;;6.47;1.10;;;10.70;99.90;;;;;;5028844;28;20131;-72
2022/10/19 01:30:53;;;;;;;7.82;1.17;;;10.80;99.90;;;;;;5044949;28;20131;-72
2022/10/19 01:33:41;;;;;;;10.07;1.25;;;10.70;99.90;;;;;;5044510;28;20115;-72
2022/10/19 01:36:27;;;;;;;9.10;0.98;;;10.70;99.90;;;;;;5041572;28;20541;-72
2022/10/19 01:39:04;;;;;;;7.15;1.20;;;10.60;99.90;;;;;;5041631;28;20051;-72
2022/10/19 01:41:54;;;;;;;10.30;1.10;;;10.70;99.90;;;;;;5044681;28;20052;-72
2022/10/19 01:44:54;;;;;;;10.43;1.30;;;10.70;99.90;;;;;;5023428;28;20052;-72
2022/10/19 01:47:28;;;;;;;9.30;1.10;;;10.70;99.90;;;;;;5024505;28;20049;-72
2022/10/19 01:50:22;;;;;;;8.75;1.00;;;10.70;99.90;;;;;;5044819;28;20120;-72
2022/10/19 01:52:50;;;;;;;7.18;1.15;;;10.70;99.90;;;;;;5043921;28;20048;-72
2022/10/19 01:55:17;;;;;;;7.32;1.10;;;10.70;99.90;;;;;;5044356;28;20073;-72
2022/10/19 01:57:48;;;;;;;6.53;0.93;;;10.70;99.90;;;;;;5025595;28;20049;-72
2022/10/19 02:00:15;;;;;;;5.80;1.05;;;10.70;99.90;;;;;;5046151;28;20484;-72
2022/10/19 02:02:45;;;;;;;5.70;1.13;;;10.70;99.90;;;;;;5043230;28;20040;-72
2022/10/19 02:05:12;;;;;;;7.20;1.13;;;10.70;99.90;;;;;;5044397;28;20083;-72
2022/10/19 02:07:40;;;;;;;7.40;1.40;;;10.70;99.90;;;;;;5028362;28;20167;-72
2022/10/19 02:10:06;;;;;;;6.72;0.95;;;10.70;99.90;;;;;;5043682;28;20102;-72
2022/10/19 02:12:32;;;;;;;11.50;1.10;;;10.70;99.90;;;;;;5044679;28;20051;-72
2022/10/19 02:15:03;;;;;;;9.55;1.10;;;10.70;99.90;;;;;;5045746;28;20037;-72
2022/10/19 02:17:34;;;;;;;10.15;1.05;;;10.70;99.90;;;;;;5029225;28;20124;-72
2022/10/19 02:20:00;;;;;;;14.23;0.93;;;10.70;99.90;;;;;;5045557;28;20040;-72
2022/10/19 02:22:26;;;;;;;10.43;1.50;;;10.70;99.90;;;;;;5046068;28;20475;-72
2022/10/19 02:24:52;;;;;;;10.15;1.33;;;10.70;99.90;;;;;;5043784;28;20051;-72
2022/10/19 02:27:18;;;;;;;8.60;1.40;;;10.70;99.90;;;;;;5027688;28;20044;-72
2022/10/19 02:29:44;;;;;;;8.40;0.98;;;10.70;99.90;;;;;;5045392;28;20041;-72
2022/10/19 02:32:10;;;;;;;9.55;1.27;;;10.70;99.90;;;;;;5044635;28;20052;-72
2022/10/19 02:34:38;;;;;;;9.48;1.52;;;10.70;99.90;;;;;;5045264;28;20068;-72
2022/10/19 02:37:05;;;;;;;10.75;1.67;;;10.70;99.90;;;;;;5029810;28;20064;-71
2022/10/19 02:39:31;;;;;;;6.68;1.20;;;10.70;99.90;;;;;;5043690;28;20098;-72
2022/10/19 02:42:10;;;;;;;5.10;1.17;;;10.70;99.90;;;;;;5046682;28;20459;-72
2022/10/19 02:44:46;;;;;;;7.40;1.33;;;10.70;99.90;;;;;;5044215;28;20057;-72
2022/10/19 02:47:20;;;;;;;14.88;1.65;;;10.60;99.90;;;;;;5029425;28;20136;-71
2022/10/19 02:49:46;;;;;;;10.65;1.42;;;10.70;99.90;;;;;;5043247;28;20123;-72
2022/10/19 02:52:12;;;;;;;8.27;1.25;;;10.70;99.90;;;;;;5044450;28;20098;-72
2022/10/19 02:54:40;;;;;;;8.50;1.40;;;10.70;99.90;;;;;;5044438;28;20391;-72
2022/10/19 02:57:13;;;;;;;12.88;1.60;;;10.60;99.90;;;;;;5028816;28;20053;-72
2022/10/19 02:59:39;;;;;;;12.02;1.50;;;10.60;99.90;;;;;;5044478;28;20613;-72
2022/10/19 03:02:05;;;;;;;7.80;1.48;;;10.60;99.90;;;;;;5042470;28;20049;-72
2022/10/19 03:04:30;;;;;;;11.48;1.48;;;10.50;99.90;;;;;;5044187;28;20044;-72
2022/10/19 03:06:56;;;;;;;13.85;1.65;;;10.50;99.90;;;;;;5027684;28;20049;-72
2022/10/19 03:09:21;;;;;;;7.50;1.40;;;10.40;99.90;;;;;;5041726;28;20048;-72
2022/10/19 03:11:47;;;;;;;12.77;1.50;;;10.30;99.90;;;;;;5043193;28;20060;-72
2022/10/19 03:14:13;;;;;;;9.73;1.48;;;10.30;99.90;;;;;;5041688;28;20044;-72
2022/10/19 03:16:38;;;;;;;8.77;1.38;;;10.20;99.90;;;;;;5029342;28;20057;-72
2022/10/19 03:19:05;;;;;;;13.98;1.65;;;10.10;99.90;;;;;;5040665;28;20036;-71
2022/10/19 03:21:32;;;;;;;8.55;1.50;;;10.10;99.90;;;;;;5044177;28;20084;-72
2022/10/19 03:23:59;;;;;;;9.23;1.50;;;10.10;99.90;;;;;;5043845;28;20495;-72
2022/10/19 03:26:25;;;;;;;12.27;1.17;;;10.10;99.90;;;;;;5030696;28;20177;-72
2022/10/19 03:28:51;;;;;;;11.95;1.70;;;10.20;99.90;;;;;;5040582;28;20866;-72
2022/10/19 03:31:17;;;;;;;8.52;1.27;;;10.10;99.90;;;;;;5041755;28;20048;-72
2022/10/19 03:33:43;;;;;;;8.35;1.20;;;10.10;99.90;;;;;;5042165;28;20040;-72
2022/10/19 03:36:26;;;;;;;13.93;1.52;;;10.20;99.90;;;;;;5036923;28;20045;-72
2022/10/19 03:38:56;;;;;;;10.80;1.23;;;10.10;99.90;;;;;;5023571;28;20059;-72
2022/10/19 03:41:24;;;;;;;8.90;1.92;;;10.10;99.90;;;;;;5026256;28;20044;-71
2022/10/19 03:43:50;;;;;;;13.00;1.60;;;10.10;99.90;;;;;;5061895;28;20053;-72
2022/10/19 03:46:16;;;;;;;8.63;1.60;;;10.10;99.90;;;;;;5034869;28;20052;-72
2022/10/19 03:48:42;;;;;;;10.18;1.60;;;10.20;99.90;;;;;;5037384;28;20416;-72
2022/10/19 03:51:16;;;;;;;8.15;1.25;;;10.10;99.90;;;;;;5043269;28;20052;-71
2022/10/19 03:53:42;;;;;;;9.18;1.20;;;10.20;99.90;;;;;;5043796;28;20091;-72
2022/10/19 03:56:17;;;;;;;8.20;1.90;;;10.20;99.90;;;;;;5035430;28;20439;-72
2022/10/19 03:58:44;;;;;;;9.52;1.60;;;10.20;99.90;;;;;;5035116;28;20330;-72
2022/10/19 04:01:19;;;;;;;13.00;1.73;;;10.20;99.90;;;;;;5042728;28;20049;-71
2022/10/19 04:03:44;;;;;;;11.68;1.83;;;10.20;99.90;;;;;;5041717;28;20136;-72
2022/10/19 04:06:16;;;;;;;13.60;2.20;;;10.20;99.90;;;;;;5020007;28;20056;-72
2022/10/19 04:08:42;;;;;;;11.80;1.85;;;10.30;99.90;;;;;;5037219;28;20041;-71
2022/10/19 04:11:12;;;;;;;13.68;2.00;;;10.30;99.90;;;;;;5042295;28;20045;-71
2022/10/19 04:13:38;;;;;;;9.13;1.70;;;10.30;99.90;;;;;;5024854;28;20044;-72
2022/10/19 04:16:05;;;;;;;10.63;1.95;;;10.40;99.90;;;;;;5041773;28;20049;-71
2022/10/19 04:18:30;;;;;;;9.98;1.73;;;10.30;99.90;;;;;;5025212;28;20060;-72
2022/10/19 04:21:01;;;;;;;10.13;1.80;;;10.30;99.90;;;;;;5041187;28;20053;-72
2022/10/19 04:23:30;;;;;;;8.15;1.60;;;10.50;99.90;;;;;;5041036;28;20123;-71
2022/10/19 04:26:03;;;;;;;9.77;1.65;;;10.40;99.90;;;;;;5041079;28;20077;-72
2022/10/19 04:28:29;;;;;;;14.20;2.08;;;10.40;99.90;;;;;;5025176;28;20060;-72
2022/10/19 04:30:55;;;;;;;12.13;1.80;;;10.30;99.90;;;;;;5025677;28;20605;-72
2022/10/19 04:33:21;;;;;;;11.10;1.63;;;10.30;99.90;;;;;;5019794;28;20533;-71
2022/10/19 04:35:46;;;;;;;10.93;2.08;;;10.30;99.90;;;;;;5039669;28;20049;-72
2022/10/19 04:38:12;;;;;;;15.60;1.88;;;10.40;99.90;;;;;;5014487;28;20049;-72
2022/10/19 04:40:38;;;;;;;7.35;1.65;;;10.30;99.90;;;;;;5031067;28;20053;-72
2022/10/19 04:43:04;;;;;;;11.23;1.80;;;10.30;99.90;;;;;;5032898;28;20049;-71
2022/10/19 04:45:34;;;;;;;14.68;1.83;;;10.30;99.90;;;;;;5028902;28;20175;-71
2022/10/19 04:47:59;;;;;;;9.18;1.50;;;10.30;99.90;;;;;;5015848;28;20045;-72
2022/10/19 04:50:25;;;;;;;9.85;1.73;;;10.30;99.90;;;;;;5030228;28;20051;-72
2022/10/19 04:52:51;;;;;;;10.93;1.73;;;10.30;99.90;;;;;;5032010;28;20521;-71
2022/10/19 04:55:16;;;;;;;12.23;1.67;;;10.30;99.90;;;;;;5042576;28;20464;-71
2022/10/19 04:57:42;;;;;;;9.65;1.80;;;10.20;99.90;;;;;;5021420;28;20053;-72
2022/10/19 05:00:08;;;;;;;9.43;1.80;;;10.30;99.90;;;;;;5029794;28;20128;-71
2022/10/19 05:02:34;;;;;;;12.65;1.70;;;10.30;99.90;;;;;;5032807;28;20053;-72
2022/10/19 05:05:00;;;;;;;13.30;2.00;;;10.20;99.90;;;;;;5030711;28;20455;-72
2022/10/19 05:07:25;;;;;;;11.40;2.13;;;10.20;99.90;;;;;;5015667;28;20549;-73
2022/10/19 05:09:51;;;;;;;13.73;2.25;;;10.20;99.90;;;;;;5028622;28;20054;-72
2022/10/19 05:12:16;;;;;;;12.77;1.80;;;10.30;99.90;;;;;;5007726;28;20052;-72
2022/10/19 05:14:42;;;;;;;11.35;2.10;;;10.20;99.90;;;;;;5011140;28;20128;-72
2022/10/19 05:17:08;;;;;;;12.82;2.10;;;10.30;99.90;;;;;;5017651;28;20148;-72
2022/10/19 05:19:33;;;;;;;17.10;2.25;;;10.30;99.90;;;;;;5032902;28;20059;-72
2022/10/19 05:21:59;;;;;;;13.85;1.95;;;10.40;99.90;;;;;;5035058;28;20576;-71
2022/10/19 05:24:25;;;;;;;13.25;2.03;;;10.30;99.90;;;;;;5041767;28;20567;-72
2022/10/19 05:26:50;;;;;;;14.27;2.05;;;10.30;99.90;;;;;;5016622;28;20497;-72
2022/10/19 05:29:16;;;;;;;14.35;1.98;;;10.20;99.90;;;;;;5041844;28;20049;-71
2022/10/19 05:31:42;;;;;;;13.02;2.20;;;10.30;99.90;;;;;;5023402;28;20049;-72
2022/10/19 05:34:08;;;;;;;9.43;1.67;;;10.30;99.90;;;;;;5023373;28;20557;-71
2022/10/19 05:36:38;;;;;;;10.65;2.55;;;10.30;99.90;;;;;;5015333;28;20084;-72
2022/10/19 05:39:14;;;;;;;12.40;1.90;;;10.30;99.90;;;;;;5029217;28;20500;-71
2022/10/19 05:41:42;;;;;;;14.73;2.17;;;10.20;99.90;;;;;;5032664;28;20140;-72
2022/10/19 05:44:13;;;;;;;10.05;1.80;;;10.30;99.90;;;;;;5025352;28;20046;-71
2022/10/19 05:46:39;;;;;;;14.38;1.92;;;10.20;99.90;;;;;;5015063;28;20076;-71
2022/10/19 05:49:04;;;;;;;14.68;2.15;;;10.20;99.90;;;;;;5024863;28;20052;-71
2022/10/19 05:51:30;;;;;;;10.93;2.00;;;10.20;99.90;;;;;;5032399;28;20049;-71
2022/10/19 05:53:56;;;;;;;9.90;1.67;;;10.30;99.90;;;;;;5027469;28;20049;-71
2022/10/19 05:56:26;;;;;;;12.45;1.95;;;10.20;99.90;;;;;;5011398;28;20060;-72
2022/10/19 05:58:52;;;;;;;7.55;1.35;;;10.20;99.90;;;;;;5026487;28;20052;-71
2022/10/19 06:01:18;;;;;;;11.07;1.75;;;10.30;99.90;;;;;;5032137;28;20497;-72
2022/10/19 06:03:46;;;;;;;10.18;2.17;;;10.20;99.90;;;;;;5032113;28;20128;-71
2022/10/19 06:06:11;;;;;;;9.95;1.67;;;10.20;99.90;;;;;;5021441;28;20045;-72
2022/10/19 06:08:38;;;;;;;13.88;2.13;;;10.20;99.90;;;;;;5035507;28;20051;-71
2022/10/19 06:11:15;;;;;;;9.68;1.85;;;10.10;99.90;;;;;;5045562;28;20508;-71
2022/10/19 06:13:43;;;;;;;10.82;1.90;;;10.20;99.90;;;;;;5043941;28;20044;-71
2022/10/19 06:16:11;;;;;;;15.00;1.90;;;10.20;99.90;;;;;;5037598;28;20041;-72
2022/10/19 06:18:37;;;;;;;10.43;1.55;;;10.20;99.90;;;;;;5025881;28;20541;-71
2022/10/19 06:21:05;;;;;;;11.02;2.10;;;10.20;99.90;;;;;;5028784;28;20181;-71
2022/10/19 06:23:32;;;;;;;16.27;2.10;;;10.20;99.90;;;;;;5026828;28;20033;-71
2022/10/19 06:25:58;;;;;;;11.43;1.80;;;10.20;99.90;;;;;;5027255;28;20079;-71
2022/10/19 06:28:24;;;;;;;12.45;1.60;;;10.20;99.90;;;;;;5018681;28;20048;-72
2022/10/19 06:30:49;;;;;;;11.48;1.95;;;10.10;99.90;;;;;;5032518;28;20084;-71
2022/10/19 06:33:15;;;;;;;13.98;1.83;;;10.20;99.90;;;;;;5021315;28;20106;-71
2022/10/19 06:35:43;;;;;;;16.38;2.10;;;10.20;99.90;;;;;;5042828;28;20697;-72
2022/10/19 06:38:09;;;;;;;8.30;1.33;;;10.20;99.90;;;;;;5026574;28;20037;-71
2022/10/19 06:40:35;;;;;;;9.20;1.65;;;10.30;99.90;;;;;;5041004;28;20067;-71
2022/10/19 06:43:01;;;;;;;10.32;1.70;;;10.30;99.90;;;;;;5042383;28;20057;-71
2022/10/19 06:45:27;;;;;;;10.23;1.67;;;10.40;99.90;;;;;;5041949;28;20098;-71
2022/10/19 06:47:52;;;;;;;13.43;1.77;;;10.30;99.90;;;;;;5007713;28;20179;-71
2022/10/19 06:50:19;;;;;;;12.63;1.60;;;10.40;99.90;;;;;;5036442;28;20518;-71
2022/10/19 06:52:45;;;;;;;11.65;1.67;;;10.40;99.90;;;;;;5041370;28;20049;-72
2022/10/19 06:55:11;;;;;;;12.13;2.00;;;10.40;99.90;;;;;;5041899;28;20095;-71
2022/10/19 06:57:37;;;;;;;11.98;1.55;;;10.40;99.90;;;;;;5026586;28;20048;-71
2022/10/19 07:00:04;;;;;;;12.60;1.60;;;10.40;99.90;;;;;;5023633;28;20186;-71
2022/10/19 07:02:31;;;;;;;10.10;1.83;;;10.40;99.90;;;;;;5021186;28;20045;-72
2022/10/19 07:04:56;;;;;;;11.50;1.67;;;10.40;99.90;;;;;;5042370;28;20547;-71
2022/10/19 07:07:22;;;;;;;8.60;1.80;;;10.40;99.90;;;;;;5026425;28;20041;-71
2022/10/19 07:09:48;;;;;;;10.30;1.80;;;10.50;99.90;;;;;;5043039;28;20076;-71
2022/10/19 07:12:13;;;;;;;11.50;1.45;;;10.50;99.90;;;;;;5024543;28;20056;-71
2022/10/19 07:14:39;;;;;;;9.48;1.70;;;10.50;99.90;;;;;;5006190;28;20053;-72
2022/10/19 07:17:06;;;;;;;11.18;1.90;;;10.60;99.90;;;;;;4988283;28;20134;-71
2022/10/19 07:19:32;;;;;;;10.93;1.50;;;10.60;99.90;;;;;;5022704;28;20071;-72
2022/10/19 07:21:58;;;;;;;6.30;1.50;;;10.60;99.90;;;;;;5022511;28;20045;-71
2022/10/19 07:24:24;;;;;;;10.93;1.80;;;10.70;99.90;;;;;;5021610;28;20126;-71
2022/10/19 07:26:50;;;;;;;11.75;1.45;;;10.90;99.90;;;;;;5006793;28;20076;-71
2022/10/19 07:29:15;;;;;;;9.30;1.38;;;10.70;99.90;;;;;;5022983;28;20045;-71
2022/10/19 07:31:41;;;;;;;11.05;2.20;;;10.80;99.90;;;;;;5020851;28;20053;-72
2022/10/19 07:34:11;;;;;;;8.40;1.70;;;10.80;99.90;;;;;;5023234;28;20053;-72
2022/10/19 07:36:36;;;;;;;8.80;1.50;;;10.90;99.90;;;;;;5009941;28;20626;-72
2022/10/19 07:39:05;;;;;;;17.70;1.70;;;10.90;99.90;;;;;;5019671;28;20053;-71
2022/10/19 07:41:31;;;;;;;11.82;1.88;;;10.90;99.90;;;;;;5021961;28;20092;-71
2022/10/19 07:43:57;;;;;;;13.25;2.15;;;11.00;99.90;;;;;;5021598;28;20047;-72
2022/10/19 07:46:25;;;;;;;11.65;1.60;;;10.90;99.90;;;;;;4998695;28;20061;-72
2022/10/19 07:48:51;;;;;;;10.02;1.77;;;10.90;99.90;;;;;;5014836;28;20053;-71
2022/10/19 07:51:18;;;;;;;8.48;1.75;;;11.00;99.90;;;;;;5020044;28;20068;-71
2022/10/19 07:53:43;;;;;;;10.43;1.75;;;11.00;99.90;;;;;;5019424;28;20045;-71
2022/10/19 07:56:12;;;;;;;9.13;1.55;;;11.00;99.90;;;;;;5015635;28;20048;-72
2022/10/19 07:58:39;;;;;;;13.57;2.10;;;11.10;99.90;;;;;;5013891;28;20158;-72
2022/10/19 08:01:14;;;;;;;14.65;1.88;;;11.10;99.90;;;;;;5019798;28;20503;-72
2022/10/19 08:03:40;;;;;;;14.32;1.88;;;11.10;99.90;;;;;;5000603;28;20107;-71
2022/10/19 08:06:09;;;;;;;8.48;1.80;;;11.10;99.90;;;;;;5019577;28;20079;-71
2022/10/19 08:08:35;;;;;;;12.55;1.73;;;11.20;99.90;;;;;;5012272;28;20045;-72
2022/10/19 08:11:32;;;;;;;8.57;1.75;;;11.20;99.90;;;;;;5023258;28;20052;-71
2022/10/19 08:13:58;;;;;;;9.63;1.80;;;11.30;99.90;;;;;;5007227;28;20056;-72
2022/10/19 08:16:39;;;;;;;14.20;1.98;;;11.30;99.90;;;;;;5012566;28;20055;-72
2022/10/19 08:19:10;;;;;;;12.70;1.70;;;11.40;99.90;;;;;;5021595;28;20625;-71
2022/10/19 08:21:38;;;;;;;10.60;1.95;;;11.40;99.90;;;;;;5023220;28;20049;-71
2022/10/19 08:24:05;;;;;;;11.18;1.80;;;11.30;99.90;;;;;;5023677;28;20586;-71
2022/10/19 08:26:34;;;;;;;13.52;1.75;;;11.50;99.90;;;;;;5012262;28;20084;-71
2022/10/19 08:29:06;;;;;;;13.18;2.00;;;11.50;99.90;;;;;;5023165;28;20175;-71
2022/10/19 08:31:32;;;;;;;13.85;2.00;;;11.50;99.90;;;;;;5025942;28;20048;-71
2022/10/19 08:33:58;;;;;;;7.50;1.63;;;11.50;99.90;;;;;;5025420;28;20052;-71
2022/10/19 08:36:24;;;;;;;14.27;2.10;;;11.60;99.90;;;;;;5013597;28;21489;-71
2022/10/19 08:38:50;;;;;;;13.20;1.38;;;11.60;99.90;;;;;;5022846;28;20527;-71
2022/10/19 08:41:31;;;;;;;13.52;1.77;;;11.60;99.90;;;;;;5024389;28;20049;-71
2022/10/19 08:44:08;;;;;;;11.80;1.98;;;11.60;99.90;;;;;;5023620;28;20424;-71
2022/10/19 08:47:00;;;;;;;11.38;1.70;;;11.70;99.90;;;;;;5009849;28;20099;-71
2022/10/19 08:49:27;;;;;;;;;;;11.70;99.90;;;;;;5016432;28;20053;-71
2022/10/19 08:51:56;;;;;;;9.52;2.00;;;11.70;99.90;;;;;;5024719;28;19934;-72
2022/10/19 08:54:24;;;;;;;10.35;1.90;;;11.70;99.90;;;;;;5024033;28;20156;-71
2022/10/19 08:57:12;;;;;;;6.95;1.77;;;11.80;99.90;;;;;;5008022;28;20072;-71
2022/10/19 08:59:47;;;;;;;7.95;1.30;;;11.80;99.90;;;;;;5022416;28;20060;-72
2022/10/19 09:02:21;;;;;;;12.57;1.90;;;11.90;99.90;;;;;;5022749;28;20118;-71
2022/10/19 09:04:57;;;;;;;7.78;1.50;;;11.90;99.90;;;;;;5008286;28;20187;-71
2022/10/19 09:07:33;;;;;;;12.27;1.65;;;12.00;99.90;;;;;;5008362;28;20048;-71
2022/10/19 09:10:05;;;;;;;8.55;1.42;;;12.00;99.90;;;;;;5006370;28;20080;-71
2022/10/19 09:13:00;;;;;;;8.77;1.60;;;12.00;99.90;;;;;;5023032;28;20593;-71
2022/10/19 09:15:44;;;;;;;10.55;2.03;;;12.00;99.90;;;;;;5020203;28;20076;-71
2022/10/19 09:18:22;;;;;;;12.45;2.10;;;12.00;99.90;;;;;;5006960;28;20179;-71
2022/10/19 09:20:50;;;;;;;9.65;1.67;;;12.10;99.90;;;;;;5022366;28;20056;-72
2022/10/19 09:23:38;;;;;;;8.73;1.92;;;12.10;99.90;;;;;;5005118;28;20129;-71
2022/10/19 09:26:14;;;;;;;8.82;1.60;;;12.20;99.90;;;;;;5023506;28;20048;-70
2022/10/19 09:29:10;;;;;;;15.50;1.75;;;12.30;99.90;;;;;;5016299;28;20118;-71
2022/10/19 09:31:38;;;;;;;9.40;1.85;;;12.30;99.90;;;;;;5023978;28;20053;-71
2022/10/19 09:34:19;;;;;;;8.55;1.60;;;12.10;99.90;;;;;;5024258;28;20040;-71
2022/10/19 09:36:50;;;;;;;12.13;1.70;;;12.20;99.90;;;;;;5007514;28;20134;-71
2022/10/19 09:39:17;;;;;;;8.60;1.50;;;12.30;99.90;;;;;;5024744;28;20737;-71
2022/10/19 09:42:14;;;;;;;9.02;1.65;;;12.30;99.90;;;;;;5023166;28;20507;-71
2022/10/19 09:44:40;;;;;;;8.55;1.50;;;12.30;99.90;;;;;;5000195;28;20053;-71
2022/10/19 09:47:24;;;;;;;8.75;1.83;;;12.30;99.90;;;;;;4988239;28;20041;-71
2022/10/19 09:49:49;;;;;;;10.60;1.60;;;12.40;99.90;;;;;;5021464;28;20134;-71
2022/10/19 09:52:30;;;;;;;11.15;2.00;;;12.40;99.90;;;;;;5022390;28;20078;-71
2022/10/19 09:55:24;;;;;;;9.23;1.67;;;12.40;99.90;;;;;;5024339;28;20366;-71
2022/10/19 09:58:13;;;;;;;8.43;1.95;;;12.40;99.90;;;;;;4997932;28;20291;-71
2022/10/19 10:00:43;;;;;;;10.70;1.83;;;12.30;99.90;;;;;;5021109;28;20072;-71
2022/10/19 10:03:23;;;;;;;4.82;1.02;;;12.40;99.90;;;;;;5022382;28;20045;-71
2022/10/19 10:05:49;;;;;;;9.70;1.75;;;12.30;99.90;;;;;;5023576;28;20141;-71
2022/10/19 10:08:18;;;;;;;8.63;1.70;;;12.30;99.90;;;;;;5007505;28;20131;-71
2022/10/19 10:11:07;;;;;;;9.65;1.88;;;12.30;99.90;;;;;;5005185;28;20118;-71
2022/10/19 10:13:37;;;;;;;7.97;1.45;;;12.30;99.90;;;;;;5005566;28;20091;-71
2022/10/19 10:16:05;;;;;;;11.27;1.77;;;12.30;99.90;;;;;;5020691;28;20044;-71
2022/10/19 10:18:34;;;;;;;12.88;1.60;;;12.30;99.90;;;;;;4987661;28;20750;-71
2022/10/19 10:21:12;;;;;;;9.73;1.63;;;12.40;99.90;;;;;;5023505;28;20041;-71
2022/10/19 10:23:37;;;;;;;9.15;1.58;;;12.40;99.90;;;;;;5020560;28;20049;-71
2022/10/19 10:26:13;;;;;;;9.10;1.27;;;12.50;99.90;;;;;;5005340;28;20044;-71
2022/10/19 10:28:46;;;;;;;10.48;1.63;;;12.50;99.90;;;;;;5014199;28;20136;-71
2022/10/19 10:31:12;;;;;;;8.95;1.40;;;12.50;99.90;;;;;;5019304;28;20044;-71
2022/10/19 10:33:38;;;;;;;10.55;1.42;;;12.40;99.90;;;;;;5021271;28;20052;-71
2022/10/19 10:36:07;;;;;;;13.70;1.38;;;12.40;99.90;;;;;;5023883;28;20076;-70
2022/10/19 10:38:45;;;;;;;10.23;1.45;;;12.40;99.90;;;;;;5010449;28;20560;-71
2022/10/19 10:41:17;;;;;;;12.68;1.65;;;12.40;99.90;;;;;;5003688;28;20045;-72
2022/10/19 10:44:00;;;;;;;9.63;1.40;;;12.30;99.90;;;;;;5020172;28;20135;-71
2022/10/19 10:46:33;;;;;;;9.15;1.90;;;12.40;99.90;;;;;;5009424;28;20492;-71
2022/10/19 10:49:02;;;;;;;12.63;1.83;;;12.40;99.90;;;;;;5016281;28;20096;-71
2022/10/19 10:52:05;;;;;;;7.70;1.55;;;12.50;99.90;;;;;;5017739;28;20047;-71
2022/10/19 10:54:32;;;;;;;13.07;1.38;;;12.70;99.90;;;;;;4995070;28;20147;-71
2022/10/19 10:57:11;;;;;;;11.50;1.63;;;12.50;99.90;;;;;;5005690;28;20049;-71
2022/10/19 11:00:14;;;;;;;11.75;1.73;;;12.60;99.90;;;;;;5017256;28;20421;-71
2022/10/19 11:03:07;;;;;;;9.60;2.00;;;12.70;99.90;;;;;;4922338;28;20058;-71
2022/10/19 11:05:40;;;;;;;7.47;1.40;;;12.70;99.90;;;;;;5015768;28;20049;-71
2022/10/19 11:08:21;;;;;;;10.50;1.60;;;12.90;99.90;;;;;;5002853;28;20636;-71
2022/10/19 11:10:54;;;;;;;7.10;1.57;;;13.00;99.90;;;;;;5018452;28;20049;-71
2022/10/19 11:13:40;;;;;;;6.80;1.48;;;13.10;99.90;;;;;;5017578;28;20045;-71
2022/10/19 11:16:16;;;;;;;7.63;1.40;;;13.10;99.90;;;;;;5019030;28;20049;-71
2022/10/19 11:18:45;;;;;;;7.60;1.40;;;13.20;99.90;;;;;;5014575;28;20048;-71
2022/10/19 11:21:18;;;;;;;8.98;1.73;;;13.30;99.90;;;;;;5003566;28;20084;-71
2022/10/19 11:24:17;;;;;;;9.05;1.50;;;13.10;99.90;;;;;;5020018;28;20658;-70
2022/10/19 11:27:29;;;;;;;6.53;1.65;;;12.90;99.90;;;;;;5007150;28;20542;-71
2022/10/19 11:30:09;;;;;;;6.20;1.30;;;12.90;99.90;;;;;;5018979;28;20079;-71
2022/10/19 11:32:58;;;;;;;11.88;1.58;;;12.80;99.90;;;;;;5019431;28;20041;-71
2022/10/19 11:35:37;;;;;;;12.38;1.55;;;12.70;99.90;;;;;;5004234;28;20061;-71
2022/10/19 11:38:32;;;;;;;7.07;1.30;;;12.60;99.90;;;;;;5004442;28;20053;-70
2022/10/19 11:41:09;;;;;;;9.55;1.52;;;12.70;99.90;;;;;;4982640;28;20057;-71
2022/10/19 11:43:35;;;;;;;9.55;1.98;;;12.70;99.90;;;;;;5005778;28;20057;-71
2022/10/19 11:46:12;;;;;;;9.70;1.67;;;12.70;99.90;;;;;;5025669;28;20055;-71
2022/10/19 11:48:47;;;;;;;8.65;1.70;;;12.80;99.90;;;;;;5016594;28;20071;-70
2022/10/19 11:51:25;;;;;;;6.50;1.40;;;12.70;99.90;;;;;;5024724;28;20057;-71
2022/10/19 11:54:15;;;;;;;6.85;1.42;;;12.70;99.90;;;;;;5007707;28;20133;-71
2022/10/19 11:56:50;;;;;;;8.50;1.40;;;12.70;99.90;;;;;;5010869;28;20049;-71
2022/10/19 11:59:38;;;;;;;8.65;1.50;;;12.70;99.90;;;;;;5025286;28;20359;-70
2022/10/19 12:02:23;;;;;;;12.05;1.73;;;12.70;99.90;;;;;;5025951;28;20120;-72
2022/10/19 12:05:09;;;;;;;7.30;1.10;;;12.70;99.90;;;;;;5023249;28;20126;-71
2022/10/19 12:07:44;;;;;;;11.68;1.50;;;12.70;99.90;;;;;;5007218;28;20082;-71
2022/10/19 12:10:20;;;;;;;7.43;1.27;;;12.70;99.90;;;;;;5022350;28;20087;-71
2022/10/19 12:12:50;;;;;;;5.68;1.30;;;12.70;99.90;;;;;;5005792;28;20111;-72
2022/10/19 12:15:22;;;;;;;10.85;1.70;;;12.70;99.90;;;;;;5024063;28;20052;-70
2022/10/19 12:17:51;;;;;;;8.40;1.67;;;12.70;99.90;;;;;;5007537;28;20056;-70
2022/10/19 12:20:33;;;;;;;11.63;1.60;;;12.70;99.90;;;;;;5022997;28;20106;-70
2022/10/19 12:23:04;;;;;;;8.63;1.48;;;12.70;99.90;;;;;;5022460;28;20511;-71
2022/10/19 12:25:33;;;;;;;7.30;1.48;;;12.70;99.90;;;;;;5023078;28;20131;-70
2022/10/19 12:27:59;;;;;;;6.05;1.08;;;12.80;99.90;;;;;;5007074;28;20052;-71
2022/10/19 12:30:24;;;;;;;10.57;1.88;;;12.90;99.90;;;;;;5024340;28;20043;-71
2022/10/19 12:33:02;;;;;;;9.95;1.75;;;12.80;99.90;;;;;;5023954;28;20966;-70
2022/10/19 12:35:59;;;;;;;7.65;1.83;;;12.80;99.90;;;;;;5023807;28;20571;-70
2022/10/19 12:38:45;;;;;;;10.15;1.60;;;12.70;99.90;;;;;;5006355;28;20065;-71
2022/10/19 12:41:33;;;;;;;7.57;1.48;;;12.60;99.90;;;;;;4972546;28;20163;-71
2022/10/19 12:44:31;;;;;;;9.73;1.55;;;12.50;99.90;;;;;;5021226;28;20103;-71
2022/10/19 12:47:18;;;;;;;6.10;1.50;;;12.50;99.90;;;;;;5007326;28;20061;-71
2022/10/19 12:49:45;;;;;;;8.52;1.10;;;12.50;99.90;;;;;;5020924;28;20152;-71
2022/10/19 12:52:13;;;;;;;5.38;1.05;;;12.60;99.90;;;;;;5023358;28;20087;-70
2022/10/19 12:54:41;;;;;;;12.25;1.73;;;12.60;99.90;;;;;;5022395;28;20052;-71
2022/10/19 12:57:28;;;;;;;8.18;1.10;;;12.60;99.90;;;;;;5006161;28;20103;-70
2022/10/19 13:00:04;;;;;;;5.80;1.35;;;12.50;99.90;;;;;;5022859;28;20385;-70
2022/10/19 13:02:33;;;;;;;7.28;1.48;;;12.50;99.90;;;;;;5004197;28;20626;-71
2022/10/19 13:05:00;;;;;;;7.85;1.48;;;12.40;99.90;;;;;;5023590;28;20052;-70
2022/10/19 13:07:26;;;;;;;9.23;1.77;;;12.40;99.90;;;;;;5006264;28;20132;-73